sensor_id;sensor_type;location;lat;lon;timestamp;temperature;humidity
3275;DHT22;1649;53.672;10.064;2023-10-19T00:02:13;7.40;99.90
3275;DHT22;1649;53.672;10.064;2023-10-19T00:04:40;7.40;99.90
3275;DHT22;1649;53.672;10.064;2023-10-19T00:07:06;7.40;99.90
3275;DHT22;1649;53.672;10.064;2023-10-19T00:09:34;7.40;99.90
3275;DHT22;1649;53.672;10.064;2023-10-19T00:12:04;7.40;99.90
3275;DHT22;1649;53.672;10.064;2023-10-19T00:14:31;7.40;99.90
3275;DHT22;1649;53.672;10.064;2023-10-19T00:16:58;7.40;99.90
3275;DHT22;1649;53.672;10.064;2023-10-19T00:19:26;7.40;99.90
3275;DHT22;1649;53.672;10.064;2023-10-19T00:21:55;7.30;99.90
3275;DHT22;1649;53.672;10.064;2023-10-19T00:24:27;7.40;99.90
3275;DHT22;1649;53.672;10.064;2023-10-19T00:26:53;7.40;99.90
3275;DHT22;1649;53.672;10.064;2023-10-19T00:29:19;7.40;99.90
3275;DHT22;1649;53.672;10.064;2023-10-19T00:31:57;7.40;99.90
3275;DHT22;1649;53.672;10.064;2023-10-19T00:34:24;7.40;99.90
3275;DHT22;1649;53.672;10.064;2023-10-19T00:36:50;7.40;99.90
3275;DHT22;1649;53.672;10.064;2023-10-19T00:39:16;7.40;99.90
3275;DHT22;1649;53.672;10.064;2023-10-19T00:41:47;7.40;99.90
3275;DHT22;1649;53.672;10.064;2023-10-19T00:44:13;7.40;99.90
3275;DHT22;1649;53.672;10.064;2023-10-19T00:46:43;7.40;99.90
3275;DHT22;1649;53.672;10.064;2023-10-19T00:49:10;7.40;99.90
3275;DHT22;1649;53.672;10.064;2023-10-19T00:51:38;7.40;99.90
3275;DHT22;1649;53.672;10.064;2023-10-19T00:54:16;7.40;99.90
3275;DHT22;1649;53.672;10.064;2023-10-19T00:56:47;7.40;99.90
3275;DHT22;1649;53.672;10.064;2023-10-19T00:59:17;7.40;99.90
3275;DHT22;1649;53.672;10.064;2023-10-19T01:01:45;7.40;99.90
3275;DHT22;1649;53.672;10.064;2023-10-19T01:04:14;7.40;99.90
3275;DHT22;1649;53.672;10.064;2023-10-19T01:06:41;7.50;99.90
3275;DHT22;1649;53.672;10.064;2023-10-19T01:09:23;7.40;99.90
3275;DHT22;1649;53.672;10.064;2023-10-19T01:11:53;7.50;99.90
3275;DHT22;1649;53.672;10.064;2023-10-19T01:14:22;7.40;99.90
3275;DHT22;1649;53.672;10.064;2023-10-19T01:16:49;7.50;99.90
3275;DHT22;1649;53.672;10.064;2023-10-19T01:19:22;7.40;99.90
3275;DHT22;1649;53.672;10.064;2023-10-19T01:21:48;7.50;99.90
3275;DHT22;1649;53.672;10.064;2023-10-19T01:24:21;7.50;99.90
3275;DHT22;1649;53.672;10.064;2023-10-19T01:26:57;7.50;99.90
3275;DHT22;1649;53.672;10.064;2023-10-19T01:29:25;7.50;99.90
3275;DHT22;1649;53.672;10.064;2023-10-19T01:31:53;7.50;99.90
3275;DHT22;1649;53.672;10.064;2023-10-19T01:34:31;7.50;99.90
3275;DHT22;1649;53.672;10.064;2023-10-19T01:36:59;7.50;99.90
3275;DHT22;1649;53.672;10.064;2023-10-19T01:39:28;7.50;99.90
3275;DHT22;1649;53.672;10.064;2023-10-19T01:41:53;7.60;99.90
3275;DHT22;1649;53.672;10.064;2023-10-19T01:44:19;7.60;99.90
3275;DHT22;1649;53.672;10.064;2023-10-19T01:46:46;7.60;99.90
3275;DHT22;1649;53.672;10.064;2023-10-19T01:49:13;7.60;99.90
3275;DHT22;1649;53.672;10.064;2023-10-19T01:51:39;7.60;99.90
3275;DHT22;1649;53.672;10.064;2023-10-19T01:54:06;7.60;99.90
3275;DHT22;1649;53.672;10.064;2023-10-19T01:56:32;7.60;99.90
3275;DHT22;1649;53.672;10.064;2023-10-19T01:59:02;7.70;99.90
3275;DHT22;1649;53.672;10.064;2023-10-19T02:01:32;7.70;99.90
3275;DHT22;1649;53.672;10.064;2023-10-19T02:04:00;7.60;99.90
3275;DHT22;1649;53.672;10.064;2023-10-19T02:06:28;7.70;99.90
3275;DHT22;1649;53.672;10.064;2023-10-19T02:09:08;7.70;99.90
3275;DHT22;1649;53.672;10.064;2023-10-19T02:11:52;7.70;99.90
3275;DHT22;1649;53.672;10.064;2023-10-19T02:14:22;7.70;99.90
3275;DHT22;1649;53.672;10.064;2023-10-19T02:16:50;7.70;99.90
3275;DHT22;1649;53.672;10.064;2023-10-19T02:19:22;7.70;99.90
3275;DHT22;1649;53.672;10.064;2023-10-19T02:21:50;7.70;99.90
3275;DHT22;1649;53.672;10.064;2023-10-19T02:24:16;7.70;99.90
3275;DHT22;1649;53.672;10.064;2023-10-19T02:26:42;7.70;99.90
3275;DHT22;1649;53.672;10.064;2023-10-19T02:29:09;7.70;99.90
3275;DHT22;1649;53.672;10.064;2023-10-19T02:31:35;7.70;99.90
3275;DHT22;1649;53.672;10.064;2023-10-19T02:34:09;7.70;99.90
3275;DHT22;1649;53.672;10.064;2023-10-19T02:36:36;7.70;99.90
3275;DHT22;1649;53.672;10.064;2023-10-19T02:39:07;7.80;99.90
3275;DHT22;1649;53.672;10.064;2023-10-19T02:41:37;7.70;99.90
3275;DHT22;1649;53.672;10.064;2023-10-19T02:44:04;7.80;99.90
3275;DHT22;1649;53.672;10.064;2023-10-19T02:46:30;7.80;99.90
3275;DHT22;1649;53.672;10.064;2023-10-19T02:49:03;7.80;99.90
3275;DHT22;1649;53.672;10.064;2023-10-19T02:51:30;7.80;99.90
3275;DHT22;1649;53.672;10.064;2023-10-19T02:53:56;7.80;99.90
3275;DHT22;1649;53.672;10.064;2023-10-19T02:56:24;7.80;99.90
3275;DHT22;1649;53.672;10.064;2023-10-19T02:58:50;7.80;99.90
3275;DHT22;1649;53.672;10.064;2023-10-19T03:01:20;7.80;99.90
3275;DHT22;1649;53.672;10.064;2023-10-19T03:03:54;7.80;99.90
3275;DHT22;1649;53.672;10.064;2023-10-19T03:06:23;7.80;99.90
3275;DHT22;1649;53.672;10.064;2023-10-19T03:08:49;7.80;99.90
3275;DHT22;1649;53.672;10.064;2023-10-19T03:11:23;7.80;99.90
3275;DHT22;1649;53.672;10.064;2023-10-19T03:13:50;7.80;99.90
3275;DHT22;1649;53.672;10.064;2023-10-19T03:16:17;7.80;99.90
3275;DHT22;1649;53.672;10.064;2023-10-19T03:18:42;7.90;99.90
3275;DHT22;1649;53.672;10.064;2023-10-19T03:21:08;7.90;99.90
3275;DHT22;1649;53.672;10.064;2023-10-19T03:23:36;7.90;99.90
3275;DHT22;1649;53.672;10.064;2023-10-19T03:26:03;7.90;99.90
3275;DHT22;1649;53.672;10.064;2023-10-19T03:28:51;8.00;99.90
3275;DHT22;1649;53.672;10.064;2023-10-19T03:31:24;8.00;99.90
3275;DHT22;1649;53.672;10.064;2023-10-19T03:33:52;8.00;99.90
3275;DHT22;1649;53.672;10.064;2023-10-19T03:36:22;8.10;99.90
3275;DHT22;1649;53.672;10.064;2023-10-19T03:38:49;8.00;99.90
3275;DHT22;1649;53.672;10.064;2023-10-19T03:41:18;8.10;99.90
3275;DHT22;1649;53.672;10.064;2023-10-19T03:43:51;8.10;99.90
3275;DHT22;1649;53.672;10.064;2023-10-19T03:46:18;8.10;99.90
3275;DHT22;1649;53.672;10.064;2023-10-19T03:48:50;8.10;99.90
3275;DHT22;1649;53.672;10.064;2023-10-19T03:51:15;8.10;99.90
3275;DHT22;1649;53.672;10.064;2023-10-19T03:53:42;8.10;99.90
3275;DHT22;1649;53.672;10.064;2023-10-19T03:56:16;8.10;99.90
3275;DHT22;1649;53.672;10.064;2023-10-19T03:58:42;8.10;99.90
3275;DHT22;1649;53.672;10.064;2023-10-19T04:01:12;8.10;99.90
3275;DHT22;1649;53.672;10.064;2023-10-19T04:03:42;8.10;99.90
3275;DHT22;1649;53.672;10.064;2023-10-19T04:06:09;8.10;99.90
3275;DHT22;1649;53.672;10.064;2023-10-19T04:08:39;8.10;99.90
3275;DHT22;1649;53.672;10.064;2023-10-19T04:11:04;8.00;99.90
3275;DHT22;1649;53.672;10.064;2023-10-19T04:13:49;8.00;99.90
3275;DHT22;1649;53.672;10.064;2023-10-19T04:16:21;8.00;99.90
3275;DHT22;1649;53.672;10.064;2023-10-19T04:18:46;7.90;99.90
3275;DHT22;1649;53.672;10.064;2023-10-19T04:21:13;7.70;99.90
3275;DHT22;1649;53.672;10.064;2023-10-19T04:23:39;7.50;99.90
3275;DHT22;1649;53.672;10.064;2023-10-19T04:26:04;7.40;99.90
3275;DHT22;1649;53.672;10.064;2023-10-19T04:28:31;7.30;99.90
3275;DHT22;1649;53.672;10.064;2023-10-19T04:31:03;7.10;99.90
3275;DHT22;1649;53.672;10.064;2023-10-19T04:33:31;7.10;99.90
3275;DHT22;1649;53.672;10.064;2023-10-19T04:35:57;7.00;99.90
3275;DHT22;1649;53.672;10.064;2023-10-19T04:38:26;6.90;99.90
3275;DHT22;1649;53.672;10.064;2023-10-19T04:40:51;6.90;99.90
3275;DHT22;1649;53.672;10.064;2023-10-19T04:43:17;6.80;99.90
3275;DHT22;1649;53.672;10.064;2023-10-19T04:45:43;6.80;99.90
3275;DHT22;1649;53.672;10.064;2023-10-19T04:48:10;6.70;99.90
3275;DHT22;1649;53.672;10.064;2023-10-19T04:50:35;6.70;99.90
3275;DHT22;1649;53.672;10.064;2023-10-19T04:53:01;6.70;99.90
3275;DHT22;1649;53.672;10.064;2023-10-19T04:55:28;6.70;99.90
3275;DHT22;1649;53.672;10.064;2023-10-19T04:57:55;6.60;99.90
3275;DHT22;1649;53.672;10.064;2023-10-19T05:00:22;6.60;99.90
3275;DHT22;1649;53.672;10.064;2023-10-19T05:02:50;6.60;99.90
3275;DHT22;1649;53.672;10.064;2023-10-19T05:05:17;6.60;99.90
3275;DHT22;1649;53.672;10.064;2023-10-19T05:07:43;6.60;99.90
3275;DHT22;1649;53.672;10.064;2023-10-19T05:10:09;6.60;99.90
3275;DHT22;1649;53.672;10.064;2023-10-19T05:12:34;6.50;99.90
3275;DHT22;1649;53.672;10.064;2023-10-19T05:15:00;6.50;99.90
3275;DHT22;1649;53.672;10.064;2023-10-19T05:17:25;6.50;99.90
3275;DHT22;1649;53.672;10.064;2023-10-19T05:19:52;6.50;99.90
3275;DHT22;1649;53.672;10.064;2023-10-19T05:22:18;6.50;99.90
3275;DHT22;1649;53.672;10.064;2023-10-19T05:24:44;6.50;99.90
3275;DHT22;1649;53.672;10.064;2023-10-19T05:27:09;6.40;99.90
3275;DHT22;1649;53.672;10.064;2023-10-19T05:29:35;6.50;99.90
3275;DHT22;1649;53.672;10.064;2023-10-19T05:32:01;6.70;99.90
3275;DHT22;1649;53.672;10.064;2023-10-19T05:34:28;6.40;99.90
3275;DHT22;1649;53.672;10.064;2023-10-19T05:36:54;6.40;99.90
3275;DHT22;1649;53.672;10.064;2023-10-19T05:39:23;6.40;99.90
3275;DHT22;1649;53.672;10.064;2023-10-19T05:41:53;6.40;99.90
3275;DHT22;1649;53.672;10.064;2023-10-19T05:44:19;6.40;99.90
3275;DHT22;1649;53.672;10.064;2023-10-19T05:46:44;6.40;99.90
3275;DHT22;1649;53.672;10.064;2023-10-19T05:49:12;6.40;99.90
3275;DHT22;1649;53.672;10.064;2023-10-19T05:51:37;6.40;99.90
3275;DHT22;1649;53.672;10.064;2023-10-19T05:54:04;6.40;99.90
3275;DHT22;1649;53.672;10.064;2023-10-19T05:56:30;6.40;99.90
3275;DHT22;1649;53.672;10.064;2023-10-19T05:58:59;6.40;99.90
3275;DHT22;1649;53.672;10.064;2023-10-19T06:01:26;6.40;99.90
3275;DHT22;1649;53.672;10.064;2023-10-19T06:03:51;6.50;99.90
3275;DHT22;1649;53.672;10.064;2023-10-19T06:06:18;6.50;99.90
3275;DHT22;1649;53.672;10.064;2023-10-19T06:08:44;6.50;99.90
3275;DHT22;1649;53.672;10.064;2023-10-19T06:11:10;6.50;99.90
3275;DHT22;1649;53.672;10.064;2023-10-19T06:13:35;6.50;99.90
3275;DHT22;1649;53.672;10.064;2023-10-19T06:16:01;6.50;99.90
3275;DHT22;1649;53.672;10.064;2023-10-19T06:18:27;6.50;99.90
3275;DHT22;1649;53.672;10.064;2023-10-19T06:20:54;6.50;99.90
3275;DHT22;1649;53.672;10.064;2023-10-19T06:23:20;6.50;99.90
3275;DHT22;1649;53.672;10.064;2023-10-19T06:25:45;6.50;99.90
3275;DHT22;1649;53.672;10.064;2023-10-19T06:28:12;6.50;99.90
3275;DHT22;1649;53.672;10.064;2023-10-19T06:30:37;6.50;99.90
3275;DHT22;1649;53.672;10.064;2023-10-19T06:33:03;6.60;99.90
3275;DHT22;1649;53.672;10.064;2023-10-19T06:35:30;6.50;99.90
3275;DHT22;1649;53.672;10.064;2023-10-19T06:38:00;6.50;99.90
3275;DHT22;1649;53.672;10.064;2023-10-19T06:40:27;6.50;99.90
3275;DHT22;1649;53.672;10.064;2023-10-19T06:42:55;6.50;99.90
3275;DHT22;1649;53.672;10.064;2023-10-19T06:45:24;6.40;99.90
3275;DHT22;1649;53.672;10.064;2023-10-19T06:47:51;6.50;99.90
3275;DHT22;1649;53.672;10.064;2023-10-19T06:50:21;6.50;99.90
3275;DHT22;1649;53.672;10.064;2023-10-19T06:52:47;6.50;99.90
3275;DHT22;1649;53.672;10.064;2023-10-19T06:55:17;6.40;99.90
3275;DHT22;1649;53.672;10.064;2023-10-19T06:57:52;6.50;99.90
3275;DHT22;1649;53.672;10.064;2023-10-19T07:00:21;6.50;99.90
3275;DHT22;1649;53.672;10.064;2023-10-19T07:02:50;6.50;99.90
3275;DHT22;1649;53.672;10.064;2023-10-19T07:05:16;6.50;99.90
3275;DHT22;1649;53.672;10.064;2023-10-19T07:07:51;6.50;99.90
3275;DHT22;1649;53.672;10.064;2023-10-19T07:10:18;6.50;99.90
3275;DHT22;1649;53.672;10.064;2023-10-19T07:12:45;6.50;99.90
3275;DHT22;1649;53.672;10.064;2023-10-19T07:15:12;6.50;99.90
3275;DHT22;1649;53.672;10.064;2023-10-19T07:17:41;6.50;99.90
3275;DHT22;1649;53.672;10.064;2023-10-19T07:20:07;6.50;99.90
3275;DHT22;1649;53.672;10.064;2023-10-19T07:22:35;6.50;99.90
3275;DHT22;1649;53.672;10.064;2023-10-19T07:25:05;6.50;99.90
3275;DHT22;1649;53.672;10.064;2023-10-19T07:27:32;6.50;99.90
3275;DHT22;1649;53.672;10.064;2023-10-19T07:29:59;6.50;99.90
3275;DHT22;1649;53.672;10.064;2023-10-19T07:32:24;6.50;99.90
3275;DHT22;1649;53.672;10.064;2023-10-19T07:34:50;6.50;99.90
3275;DHT22;1649;53.672;10.064;2023-10-19T07:37:15;6.50;99.90
3275;DHT22;1649;53.672;10.064;2023-10-19T07:39:47;6.50;99.90
3275;DHT22;1649;53.672;10.064;2023-10-19T07:42:14;6.50;99.90
3275;DHT22;1649;53.672;10.064;2023-10-19T07:44:40;6.40;99.90
3275;DHT22;1649;53.672;10.064;2023-10-19T07:47:06;6.50;99.90
3275;DHT22;1649;53.672;10.064;2023-10-19T07:49:35;6.50;99.90
3275;DHT22;1649;53.672;10.064;2023-10-19T07:52:04;6.50;99.90
3275;DHT22;1649;53.672;10.064;2023-10-19T07:54:32;6.50;99.90
3275;DHT22;1649;53.672;10.064;2023-10-19T07:56:58;6.40;99.90
3275;DHT22;1649;53.672;10.064;2023-10-19T07:59:23;6.50;99.90
3275;DHT22;1649;53.672;10.064;2023-10-19T08:01:49;6.50;99.90
3275;DHT22;1649;53.672;10.064;2023-10-19T08:04:14;6.50;99.90
3275;DHT22;1649;53.672;10.064;2023-10-19T08:06:39;6.50;99.90
3275;DHT22;1649;53.672;10.064;2023-10-19T08:09:05;6.50;99.90
3275;DHT22;1649;53.672;10.064;2023-10-19T08:11:31;6.60;99.90
3275;DHT22;1649;53.672;10.064;2023-10-19T08:13:56;6.50;99.90
3275;DHT22;1649;53.672;10.064;2023-10-19T08:16:22;6.50;99.90
3275;DHT22;1649;53.672;10.064;2023-10-19T08:18:49;6.60;99.90
3275;DHT22;1649;53.672;10.064;2023-10-19T08:21:14;6.60;99.90
3275;DHT22;1649;53.672;10.064;2023-10-19T08:23:40;6.50;99.90
3275;DHT22;1649;53.672;10.064;2023-10-19T08:26:05;6.60;99.90
3275;DHT22;1649;53.672;10.064;2023-10-19T08:28:31;6.50;99.90
3275;DHT22;1649;53.672;10.064;2023-10-19T08:30:58;6.60;99.90
3275;DHT22;1649;53.672;10.064;2023-10-19T08:33:26;6.50;99.90
3275;DHT22;1649;53.672;10.064;2023-10-19T08:35:56;6.50;99.90
3275;DHT22;1649;53.672;10.064;2023-10-19T08:38:25;6.60;99.90
3275;DHT22;1649;53.672;10.064;2023-10-19T08:40:51;6.50;99.90
3275;DHT22;1649;53.672;10.064;2023-10-19T08:43:18;6.50;99.90
3275;DHT22;1649;53.672;10.064;2023-10-19T08:45:44;6.50;99.90
3275;DHT22;1649;53.672;10.064;2023-10-19T08:48:10;6.50;99.90
3275;DHT22;1649;53.672;10.064;2023-10-19T08:50:37;6.50;99.90
3275;DHT22;1649;53.672;10.064;2023-10-19T08:53:03;6.50;99.90
3275;DHT22;1649;53.672;10.064;2023-10-19T08:55:29;6.50;99.90
3275;DHT22;1649;53.672;10.064;2023-10-19T08:58:01;6.50;99.90
3275;DHT22;1649;53.672;10.064;2023-10-19T09:00:46;6.50;99.90
3275;DHT22;1649;53.672;10.064;2023-10-19T09:03:13;6.50;99.90
3275;DHT22;1649;53.672;10.064;2023-10-19T09:05:39;6.50;99.90
3275;DHT22;1649;53.672;10.064;2023-10-19T09:08:05;6.50;99.90
3275;DHT22;1649;53.672;10.064;2023-10-19T09:10:31;6.50;99.90
3275;DHT22;1649;53.672;10.064;2023-10-19T09:15:27;6.50;99.90
3275;DHT22;1649;53.672;10.064;2023-10-19T09:17:54;6.50;99.90
3275;DHT22;1649;53.672;10.064;2023-10-19T09:20:20;6.60;99.90
3275;DHT22;1649;53.672;10.064;2023-10-19T09:22:55;6.60;99.90
3275;DHT22;1649;53.672;10.064;2023-10-19T09:25:23;6.60;99.90
3275;DHT22;1649;53.672;10.064;2023-10-19T09:27:49;6.60;99.90
3275;DHT22;1649;53.672;10.064;2023-10-19T09:30:15;6.60;99.90
3275;DHT22;1649;53.672;10.064;2023-10-19T09:32:46;6.60;99.90
3275;DHT22;1649;53.672;10.064;2023-10-19T09:35:14;6.70;99.90
3275;DHT22;1649;53.672;10.064;2023-10-19T09:37:42;6.60;99.90
3275;DHT22;1649;53.672;10.064;2023-10-19T09:40:09;6.60;99.90
3275;DHT22;1649;53.672;10.064;2023-10-19T09:42:42;6.60;99.90
3275;DHT22;1649;53.672;10.064;2023-10-19T09:45:12;6.70;99.90
3275;DHT22;1649;53.672;10.064;2023-10-19T09:47:39;6.70;99.90
3275;DHT22;1649;53.672;10.064;2023-10-19T09:50:06;6.70;99.90
3275;DHT22;1649;53.672;10.064;2023-10-19T09:52:36;6.70;99.90
3275;DHT22;1649;53.672;10.064;2023-10-19T09:55:19;6.70;99.90
3275;DHT22;1649;53.672;10.064;2023-10-19T10:00:28;6.70;99.90
3275;DHT22;1649;53.672;10.064;2023-10-19T10:02:57;6.70;99.90
3275;DHT22;1649;53.672;10.064;2023-10-19T10:10:51;6.80;99.90
3275;DHT22;1649;53.672;10.064;2023-10-19T10:15:58;6.70;99.90
3275;DHT22;1649;53.672;10.064;2023-10-19T10:18:27;6.80;99.90
3275;DHT22;1649;53.672;10.064;2023-10-19T10:21:07;6.70;99.90
3275;DHT22;1649;53.672;10.064;2023-10-19T10:23:43;6.70;99.90
3275;DHT22;1649;53.672;10.064;2023-10-19T10:26:12;6.70;99.90
3275;DHT22;1649;53.672;10.064;2023-10-19T10:28:40;6.70;99.90
3275;DHT22;1649;53.672;10.064;2023-10-19T10:31:12;6.80;99.90
3275;DHT22;1649;53.672;10.064;2023-10-19T10:33:51;6.70;99.90
3275;DHT22;1649;53.672;10.064;2023-10-19T10:36:18;6.80;99.90
3275;DHT22;1649;53.672;10.064;2023-10-19T10:38:49;6.80;99.90
3275;DHT22;1649;53.672;10.064;2023-10-19T10:41:22;6.90;99.90
3275;DHT22;1649;53.672;10.064;2023-10-19T10:43:55;6.90;99.90
3275;DHT22;1649;53.672;10.064;2023-10-19T10:46:22;7.00;99.90
3275;DHT22;1649;53.672;10.064;2023-10-19T10:48:48;7.10;99.90
3275;DHT22;1649;53.672;10.064;2023-10-19T10:51:24;7.10;99.90
3275;DHT22;1649;53.672;10.064;2023-10-19T10:53:52;7.10;99.90
3275;DHT22;1649;53.672;10.064;2023-10-19T10:56:20;7.10;99.90
3275;DHT22;1649;53.672;10.064;2023-10-19T10:58:45;7.10;99.90
3275;DHT22;1649;53.672;10.064;2023-10-19T11:01:11;7.00;99.90
3275;DHT22;1649;53.672;10.064;2023-10-19T11:03:39;7.00;99.90
3275;DHT22;1649;53.672;10.064;2023-10-19T11:06:08;7.10;99.90
3275;DHT22;1649;53.672;10.064;2023-10-19T11:08:34;7.00;99.90
3275;DHT22;1649;53.672;10.064;2023-10-19T11:11:07;7.00;99.90
3275;DHT22;1649;53.672;10.064;2023-10-19T11:13:33;7.00;99.90
3275;DHT22;1649;53.672;10.064;2023-10-19T11:16:00;7.10;99.90
3275;DHT22;1649;53.672;10.064;2023-10-19T11:18:37;7.10;99.90
3275;DHT22;1649;53.672;10.064;2023-10-19T11:21:12;7.10;99.90
3275;DHT22;1649;53.672;10.064;2023-10-19T11:26:04;7.10;99.90
3275;DHT22;1649;53.672;10.064;2023-10-19T11:28:31;7.00;99.90
3275;DHT22;1649;53.672;10.064;2023-10-19T11:31:21;7.10;99.90
3275;DHT22;1649;53.672;10.064;2023-10-19T11:33:51;7.10;99.90
3275;DHT22;1649;53.672;10.064;2023-10-19T11:36:17;7.10;99.90
3275;DHT22;1649;53.672;10.064;2023-10-19T11:38:45;7.00;99.90
3275;DHT22;1649;53.672;10.064;2023-10-19T11:41:14;7.00;99.90
3275;DHT22;1649;53.672;10.064;2023-10-19T11:43:42;7.10;99.90
3275;DHT22;1649;53.672;10.064;2023-10-19T11:46:09;7.10;99.90
3275;DHT22;1649;53.672;10.064;2023-10-19T11:48:36;7.10;99.90
3275;DHT22;1649;53.672;10.064;2023-10-19T11:51:02;7.00;99.90
3275;DHT22;1649;53.672;10.064;2023-10-19T11:53:33;7.00;99.90
3275;DHT22;1649;53.672;10.064;2023-10-19T11:56:07;7.00;99.90
3275;DHT22;1649;53.672;10.064;2023-10-19T11:58:36;7.00;99.90
3275;DHT22;1649;53.672;10.064;2023-10-19T12:01:07;7.10;99.90
3275;DHT22;1649;53.672;10.064;2023-10-19T12:03:37;7.10;99.90
3275;DHT22;1649;53.672;10.064;2023-10-19T12:06:04;7.00;99.90
3275;DHT22;1649;53.672;10.064;2023-10-19T12:08:33;7.00;99.90
3275;DHT22;1649;53.672;10.064;2023-10-19T12:10:59;7.10;99.90
3275;DHT22;1649;53.672;10.064;2023-10-19T12:13:27;7.00;99.90
3275;DHT22;1649;53.672;10.064;2023-10-19T12:15:53;7.00;99.90
3275;DHT22;1649;53.672;10.064;2023-10-19T12:18:20;7.00;99.90
3275;DHT22;1649;53.672;10.064;2023-10-19T12:20:46;7.10;99.90
3275;DHT22;1649;53.672;10.064;2023-10-19T12:23:13;7.10;99.90
3275;DHT22;1649;53.672;10.064;2023-10-19T12:25:40;7.10;99.90
3275;DHT22;1649;53.672;10.064;2023-10-19T12:28:07;7.10;99.90
3275;DHT22;1649;53.672;10.064;2023-10-19T12:30:33;7.10;99.90
3275;DHT22;1649;53.672;10.064;2023-10-19T12:33:02;7.10;99.90
3275;DHT22;1649;53.672;10.064;2023-10-19T12:35:33;7.20;99.90
3275;DHT22;1649;53.672;10.064;2023-10-19T12:38:11;7.20;99.90
3275;DHT22;1649;53.672;10.064;2023-10-19T12:40:45;7.20;99.90
3275;DHT22;1649;53.672;10.064;2023-10-19T12:43:11;7.20;99.90
3275;DHT22;1649;53.672;10.064;2023-10-19T12:45:37;7.30;99.90
3275;DHT22;1649;53.672;10.064;2023-10-19T12:48:04;7.30;99.90
3275;DHT22;1649;53.672;10.064;2023-10-19T12:50:34;7.30;99.90
3275;DHT22;1649;53.672;10.064;2023-10-19T12:53:00;7.30;99.90
3275;DHT22;1649;53.672;10.064;2023-10-19T12:55:26;7.30;99.90
3275;DHT22;1649;53.672;10.064;2023-10-19T12:57:56;7.30;99.90
3275;DHT22;1649;53.672;10.064;2023-10-19T13:00:22;7.30;99.90
3275;DHT22;1649;53.672;10.064;2023-10-19T13:03:04;7.30;99.90
3275;DHT22;1649;53.672;10.064;2023-10-19T13:05:36;7.40;99.90
3275;DHT22;1649;53.672;10.064;2023-10-19T13:08:06;7.40;99.90
3275;DHT22;1649;53.672;10.064;2023-10-19T13:10:32;7.40;99.90
3275;DHT22;1649;53.672;10.064;2023-10-19T13:13:03;7.40;99.90
3275;DHT22;1649;53.672;10.064;2023-10-19T13:15:35;7.40;99.90
3275;DHT22;1649;53.672;10.064;2023-10-19T13:18:02;7.30;99.90
3275;DHT22;1649;53.672;10.064;2023-10-19T13:20:28;7.40;99.90
3275;DHT22;1649;53.672;10.064;2023-10-19T13:23:03;7.40;99.90
3275;DHT22;1649;53.672;10.064;2023-10-19T13:25:30;7.40;99.90
3275;DHT22;1649;53.672;10.064;2023-10-19T13:28:10;7.40;99.90
3275;DHT22;1649;53.672;10.064;2023-10-19T13:30:38;7.40;99.90
3275;DHT22;1649;53.672;10.064;2023-10-19T13:33:06;7.40;99.90
3275;DHT22;1649;53.672;10.064;2023-10-19T13:35:37;7.50;99.90
3275;DHT22;1649;53.672;10.064;2023-10-19T13:38:10;7.50;99.90
3275;DHT22;1649;53.672;10.064;2023-10-19T13:40:39;7.60;99.90
3275;DHT22;1649;53.672;10.064;2023-10-19T13:43:05;7.50;99.90
3275;DHT22;1649;53.672;10.064;2023-10-19T13:45:36;7.50;99.90
3275;DHT22;1649;53.672;10.064;2023-10-19T13:48:02;7.50;99.90
3275;DHT22;1649;53.672;10.064;2023-10-19T13:50:29;7.50;99.90
3275;DHT22;1649;53.672;10.064;2023-10-19T13:52:55;7.50;99.90
3275;DHT22;1649;53.672;10.064;2023-10-19T13:55:23;7.50;99.90
3275;DHT22;1649;53.672;10.064;2023-10-19T13:57:49;7.50;99.90
3275;DHT22;1649;53.672;10.064;2023-10-19T14:00:15;7.50;99.90
3275;DHT22;1649;53.672;10.064;2023-10-19T14:03:01;7.50;99.90
3275;DHT22;1649;53.672;10.064;2023-10-19T14:05:28;7.50;99.90
3275;DHT22;1649;53.672;10.064;2023-10-19T14:07:54;7.50;99.90
3275;DHT22;1649;53.672;10.064;2023-10-19T14:10:21;7.50;99.90
3275;DHT22;1649;53.672;10.064;2023-10-19T14:12:47;7.50;99.90
3275;DHT22;1649;53.672;10.064;2023-10-19T14:15:15;7.50;99.90
3275;DHT22;1649;53.672;10.064;2023-10-19T14:17:47;7.60;99.90
3275;DHT22;1649;53.672;10.064;2023-10-19T14:20:14;7.60;99.90
3275;DHT22;1649;53.672;10.064;2023-10-19T14:22:45;7.60;99.90
3275;DHT22;1649;53.672;10.064;2023-10-19T14:25:12;7.60;99.90
3275;DHT22;1649;53.672;10.064;2023-10-19T14:30:05;7.60;99.90
3275;DHT22;1649;53.672;10.064;2023-10-19T14:32:30;7.60;99.90
3275;DHT22;1649;53.672;10.064;2023-10-19T14:34:56;7.60;99.90
3275;DHT22;1649;53.672;10.064;2023-10-19T14:37:21;7.60;99.90
3275;DHT22;1649;53.672;10.064;2023-10-19T14:39:47;7.60;99.90
3275;DHT22;1649;53.672;10.064;2023-10-19T14:42:12;7.60;99.90
3275;DHT22;1649;53.672;10.064;2023-10-19T14:44:38;7.60;99.90
3275;DHT22;1649;53.672;10.064;2023-10-19T14:47:03;7.60;99.90
3275;DHT22;1649;53.672;10.064;2023-10-19T14:49:30;7.60;99.90
3275;DHT22;1649;53.672;10.064;2023-10-19T14:51:55;7.60;99.90
3275;DHT22;1649;53.672;10.064;2023-10-19T14:54:21;7.60;99.90
3275;DHT22;1649;53.672;10.064;2023-10-19T14:56:47;7.60;99.90
3275;DHT22;1649;53.672;10.064;2023-10-19T14:59:12;7.60;99.90
3275;DHT22;1649;53.672;10.064;2023-10-19T15:01:38;7.60;99.90
3275;DHT22;1649;53.672;10.064;2023-10-19T15:04:04;7.60;99.90
3275;DHT22;1649;53.672;10.064;2023-10-19T15:06:31;7.60;99.90
3275;DHT22;1649;53.672;10.064;2023-10-19T15:08:56;7.60;99.90
3275;DHT22;1649;53.672;10.064;2023-10-19T15:11:22;7.60;99.90
3275;DHT22;1649;53.672;10.064;2023-10-19T15:13:50;7.60;99.90
3275;DHT22;1649;53.672;10.064;2023-10-19T15:16:16;7.50;99.90
3275;DHT22;1649;53.672;10.064;2023-10-19T15:18:42;7.50;99.90
3275;DHT22;1649;53.672;10.064;2023-10-19T15:21:09;7.50;99.90
3275;DHT22;1649;53.672;10.064;2023-10-19T15:23:34;7.50;99.90
3275;DHT22;1649;53.672;10.064;2023-10-19T15:26:00;7.50;99.90
3275;DHT22;1649;53.672;10.064;2023-10-19T15:28:27;7.50;99.90
3275;DHT22;1649;53.672;10.064;2023-10-19T15:30:57;7.50;99.90
3275;DHT22;1649;53.672;10.064;2023-10-19T15:33:23;7.50;99.90
3275;DHT22;1649;53.672;10.064;2023-10-19T15:35:48;7.50;99.90
3275;DHT22;1649;53.672;10.064;2023-10-19T15:38:14;7.50;99.90
3275;DHT22;1649;53.672;10.064;2023-10-19T15:40:39;7.40;99.90
3275;DHT22;1649;53.672;10.064;2023-10-19T15:43:05;7.40;99.90
3275;DHT22;1649;53.672;10.064;2023-10-19T15:45:31;7.40;99.90
3275;DHT22;1649;53.672;10.064;2023-10-19T15:48:05;7.40;99.90
3275;DHT22;1649;53.672;10.064;2023-10-19T15:50:31;7.40;99.90
3275;DHT22;1649;53.672;10.064;2023-10-19T15:53:00;7.30;99.90
3275;DHT22;1649;53.672;10.064;2023-10-19T15:55:27;7.40;99.90
3275;DHT22;1649;53.672;10.064;2023-10-19T15:57:53;7.30;99.90
3275;DHT22;1649;53.672;10.064;2023-10-19T16:00:19;7.30;99.90
3275;DHT22;1649;53.672;10.064;2023-10-19T16:02:45;7.30;99.90
3275;DHT22;1649;53.672;10.064;2023-10-19T16:05:11;7.30;99.90
3275;DHT22;1649;53.672;10.064;2023-10-19T16:07:37;7.40;99.90
3275;DHT22;1649;53.672;10.064;2023-10-19T16:10:04;7.30;99.90
3275;DHT22;1649;53.672;10.064;2023-10-19T16:12:30;7.30;99.90
3275;DHT22;1649;53.672;10.064;2023-10-19T16:14:56;7.30;99.90
3275;DHT22;1649;53.672;10.064;2023-10-19T16:17:21;7.30;99.90
3275;DHT22;1649;53.672;10.064;2023-10-19T16:19:47;7.30;99.90
3275;DHT22;1649;53.672;10.064;2023-10-19T16:22:13;7.30;99.90
3275;DHT22;1649;53.672;10.064;2023-10-19T16:24:39;7.30;99.90
3275;DHT22;1649;53.672;10.064;2023-10-19T16:27:05;7.30;99.90